sensor_id;sensor_type;location;lat;lon;timestamp;P1;durP1;ratioP1;P2;durP2;ratioP2
63193;SDS011;49289;51.670;5.624;2023-04-03T00:01:32;4.60;;;3.40;;
63193;SDS011;49289;51.670;5.624;2023-04-03T00:03:20;5.50;;;3.80;;
63193;SDS011;49289;51.670;5.624;2023-04-03T00:05:07;6.90;;;4.00;;
63193;SDS011;49289;51.670;5.624;2023-04-03T00:06:55;5.50;;;3.70;;
63193;SDS011;49289;51.670;5.624;2023-04-03T00:08:42;6.70;;;3.90;;
63193;SDS011;49289;51.670;5.624;2023-04-03T00:10:29;6.80;;;4.30;;
63193;SDS011;49289;51.670;5.624;2023-04-03T00:12:16;7.60;;;4.30;;
63193;SDS011;49289;51.670;5.624;2023-04-03T00:14:03;5.20;;;3.80;;
63193;SDS011;49289;51.670;5.624;2023-04-03T00:15:50;4.70;;;3.60;;
63193;SDS011;49289;51.670;5.624;2023-04-03T00:17:37;5.30;;;3.90;;
63193;SDS011;49289;51.670;5.624;2023-04-03T00:19:24;4.30;;;3.80;;
63193;SDS011;49289;51.670;5.624;2023-04-03T00:21:11;4.40;;;3.50;;
63193;SDS011;49289;51.670;5.624;2023-04-03T00:22:58;6.80;;;3.90;;
63193;SDS011;49289;51.670;5.624;2023-04-03T00:24:45;4.60;;;3.60;;
63193;SDS011;49289;51.670;5.624;2023-04-03T00:26:32;5.10;;;4.00;;
63193;SDS011;49289;51.670;5.624;2023-04-03T00:28:19;6.20;;;3.90;;
63193;SDS011;49289;51.670;5.624;2023-04-03T00:30:06;5.50;;;3.60;;
63193;SDS011;49289;51.670;5.624;2023-04-03T00:31:54;5.60;;;3.80;;
63193;SDS011;49289;51.670;5.624;2023-04-03T00:33:42;4.90;;;3.70;;
63193;SDS011;49289;51.670;5.624;2023-04-03T00:35:29;6.20;;;3.80;;
63193;SDS011;49289;51.670;5.624;2023-04-03T00:37:16;4.90;;;3.90;;
63193;SDS011;49289;51.670;5.624;2023-04-03T00:39:03;6.10;;;4.00;;
63193;SDS011;49289;51.670;5.624;2023-04-03T00:40:50;5.30;;;4.00;;
63193;SDS011;49289;51.670;5.624;2023-04-03T00:42:25;7.00;;;4.00;;
63193;SDS011;49289;51.670;5.624;2023-04-03T00:46:26;5.90;;;3.70;;
63193;SDS011;49289;51.670;5.624;2023-04-03T00:48:14;7.30;;;3.90;;
63193;SDS011;49289;51.670;5.624;2023-04-03T00:50:01;5.40;;;3.70;;
63193;SDS011;49289;51.670;5.624;2023-04-03T00:51:49;5.40;;;3.70;;
63193;SDS011;49289;51.670;5.624;2023-04-03T00:53:37;4.90;;;3.90;;
63193;SDS011;49289;51.670;5.624;2023-04-03T00:55:23;5.40;;;3.80;;
63193;SDS011;49289;51.670;5.624;2023-04-03T00:57:10;10.20;;;5.50;;
63193;SDS011;49289;51.670;5.624;2023-04-03T00:58:58;5.10;;;3.90;;
63193;SDS011;49289;51.670;5.624;2023-04-03T01:00:45;5.00;;;3.80;;
63193;SDS011;49289;51.670;5.624;2023-04-03T01:02:32;5.60;;;3.90;;
63193;SDS011;49289;51.670;5.624;2023-04-03T01:04:32;4.50;;;4.00;;
63193;SDS011;49289;51.670;5.624;2023-04-03T01:06:19;9.30;;;4.30;;
63193;SDS011;49289;51.670;5.624;2023-04-03T01:08:05;5.50;;;3.80;;
63193;SDS011;49289;51.670;5.624;2023-04-03T01:09:52;7.10;;;4.40;;
63193;SDS011;49289;51.670;5.624;2023-04-03T01:11:39;5.30;;;4.00;;
63193;SDS011;49289;51.670;5.624;2023-04-03T01:13:27;5.00;;;4.00;;
63193;SDS011;49289;51.670;5.624;2023-04-03T01:15:16;7.50;;;3.90;;
63193;SDS011;49289;51.670;5.624;2023-04-03T01:17:02;5.30;;;4.00;;
63193;SDS011;49289;51.670;5.624;2023-04-03T01:19:03;6.50;;;4.00;;
63193;SDS011;49289;51.670;5.624;2023-04-03T01:21:06;8.70;;;4.20;;
63193;SDS011;49289;51.670;5.624;2023-04-03T01:22:56;5.20;;;4.10;;
63193;SDS011;49289;51.670;5.624;2023-04-03T01:24:44;4.30;;;3.70;;
63193;SDS011;49289;51.670;5.624;2023-04-03T01:26:32;4.90;;;4.00;;
63193;SDS011;49289;51.670;5.624;2023-04-03T01:28:21;6.00;;;4.20;;
63193;SDS011;49289;51.670;5.624;2023-04-03T01:30:08;7.40;;;3.70;;
63193;SDS011;49289;51.670;5.624;2023-04-03T01:31:57;6.00;;;4.20;;
63193;SDS011;49289;51.670;5.624;2023-04-03T01:33:44;5.20;;;4.10;;
63193;SDS011;49289;51.670;5.624;2023-04-03T01:35:31;6.60;;;4.50;;
63193;SDS011;49289;51.670;5.624;2023-04-03T01:37:18;5.60;;;4.00;;
63193;SDS011;49289;51.670;5.624;2023-04-03T01:39:05;5.10;;;3.90;;
63193;SDS011;49289;51.670;5.624;2023-04-03T01:40:54;4.90;;;3.70;;
63193;SDS011;49289;51.670;5.624;2023-04-03T01:42:41;8.20;;;4.10;;
63193;SDS011;49289;51.670;5.624;2023-04-03T01:44:28;6.00;;;4.00;;
63193;SDS011;49289;51.670;5.624;2023-04-03T01:46:15;5.00;;;4.00;;
63193;SDS011;49289;51.670;5.624;2023-04-03T01:48:03;4.90;;;4.20;;
63193;SDS011;49289;51.670;5.624;2023-04-03T01:49:51;4.40;;;3.80;;
63193;SDS011;49289;51.670;5.624;2023-04-03T01:51:39;4.30;;;3.70;;
63193;SDS011;49289;51.670;5.624;2023-04-03T01:53:27;6.30;;;4.00;;
63193;SDS011;49289;51.670;5.624;2023-04-03T01:55:15;6.70;;;4.10;;
63193;SDS011;49289;51.670;5.624;2023-04-03T01:57:02;7.30;;;3.90;;
63193;SDS011;49289;51.670;5.624;2023-04-03T01:58:50;5.10;;;3.60;;
63193;SDS011;49289;51.670;5.624;2023-04-03T02:00:38;8.50;;;4.00;;
63193;SDS011;49289;51.670;5.624;2023-04-03T02:02:26;5.20;;;3.50;;
63193;SDS011;49289;51.670;5.624;2023-04-03T02:04:13;6.90;;;4.20;;
63193;SDS011;49289;51.670;5.624;2023-04-03T02:06:01;6.40;;;4.10;;
63193;SDS011;49289;51.670;5.624;2023-04-03T02:07:50;4.50;;;3.60;;
63193;SDS011;49289;51.670;5.624;2023-04-03T02:09:38;6.50;;;4.00;;
63193;SDS011;49289;51.670;5.624;2023-04-03T02:11:26;5.60;;;3.90;;
63193;SDS011;49289;51.670;5.624;2023-04-03T02:13:13;5.20;;;3.40;;
63193;SDS011;49289;51.670;5.624;2023-04-03T02:15:01;5.80;;;3.40;;
63193;SDS011;49289;51.670;5.624;2023-04-03T02:16:48;5.80;;;3.90;;
63193;SDS011;49289;51.670;5.624;2023-04-03T02:18:35;4.00;;;3.40;;
63193;SDS011;49289;51.670;5.624;2023-04-03T02:20:22;4.70;;;3.50;;
63193;SDS011;49289;51.670;5.624;2023-04-03T02:22:09;4.20;;;3.30;;
63193;SDS011;49289;51.670;5.624;2023-04-03T02:23:56;7.50;;;3.60;;
63193;SDS011;49289;51.670;5.624;2023-04-03T02:25:43;5.60;;;3.60;;
63193;SDS011;49289;51.670;5.624;2023-04-03T02:27:30;5.00;;;3.60;;
63193;SDS011;49289;51.670;5.624;2023-04-03T02:29:17;6.20;;;3.70;;
63193;SDS011;49289;51.670;5.624;2023-04-03T02:31:04;4.10;;;2.90;;
63193;SDS011;49289;51.670;5.624;2023-04-03T02:32:51;6.30;;;3.40;;
63193;SDS011;49289;51.670;5.624;2023-04-03T02:34:38;6.00;;;3.40;;
63193;SDS011;49289;51.670;5.624;2023-04-03T02:36:25;4.70;;;3.60;;
63193;SDS011;49289;51.670;5.624;2023-04-03T02:38:12;4.40;;;3.20;;
63193;SDS011;49289;51.670;5.624;2023-04-03T02:39:59;7.20;;;3.40;;
63193;SDS011;49289;51.670;5.624;2023-04-03T02:41:46;3.50;;;3.00;;
63193;SDS011;49289;51.670;5.624;2023-04-03T02:43:33;7.60;;;3.50;;
63193;SDS011;49289;51.670;5.624;2023-04-03T02:45:20;4.80;;;3.10;;
63193;SDS011;49289;51.670;5.624;2023-04-03T02:47:07;6.50;;;3.40;;
63193;SDS011;49289;51.670;5.624;2023-04-03T02:48:54;4.00;;;2.70;;
63193;SDS011;49289;51.670;5.624;2023-04-03T02:50:41;4.30;;;2.80;;
63193;SDS011;49289;51.670;5.624;2023-04-03T02:52:29;5.90;;;2.90;;
63193;SDS011;49289;51.670;5.624;2023-04-03T02:54:17;3.40;;;2.80;;
63193;SDS011;49289;51.670;5.624;2023-04-03T02:56:04;4.00;;;2.60;;
63193;SDS011;49289;51.670;5.624;2023-04-03T02:57:52;3.00;;;2.60;;
63193;SDS011;49289;51.670;5.624;2023-04-03T02:59:41;3.80;;;2.60;;
63193;SDS011;49289;51.670;5.624;2023-04-03T03:01:28;3.50;;;2.80;;
63193;SDS011;49289;51.670;5.624;2023-04-03T03:03:15;5.40;;;2.60;;
63193;SDS011;49289;51.670;5.624;2023-04-03T03:05:02;4.20;;;2.40;;
63193;SDS011;49289;51.670;5.624;2023-04-03T03:06:50;2.60;;;2.40;;
63193;SDS011;49289;51.670;5.624;2023-04-03T03:08:39;4.50;;;2.40;;
63193;SDS011;49289;51.670;5.624;2023-04-03T03:10:26;2.90;;;2.30;;
63193;SDS011;49289;51.670;5.624;2023-04-03T03:12:14;4.20;;;2.30;;
63193;SDS011;49289;51.670;5.624;2023-04-03T03:14:03;4.70;;;2.40;;
63193;SDS011;49289;51.670;5.624;2023-04-03T03:15:51;4.00;;;2.30;;
63193;SDS011;49289;51.670;5.624;2023-04-03T03:17:39;3.40;;;2.30;;
63193;SDS011;49289;51.670;5.624;2023-04-03T03:19:27;2.80;;;2.20;;
63193;SDS011;49289;51.670;5.624;2023-04-03T03:21:15;3.40;;;2.10;;
63193;SDS011;49289;51.670;5.624;2023-04-03T03:23:02;4.20;;;2.30;;
63193;SDS011;49289;51.670;5.624;2023-04-03T03:24:54;3.90;;;2.10;;
63193;SDS011;49289;51.670;5.624;2023-04-03T03:26:41;3.00;;;2.30;;
63193;SDS011;49289;51.670;5.624;2023-04-03T03:28:30;2.20;;;2.00;;
63193;SDS011;49289;51.670;5.624;2023-04-03T03:30:19;4.50;;;2.30;;
63193;SDS011;49289;51.670;5.624;2023-04-03T03:32:08;5.10;;;2.30;;
63193;SDS011;49289;51.670;5.624;2023-04-03T03:33:56;2.80;;;1.90;;
63193;SDS011;49289;51.670;5.624;2023-04-03T03:35:43;3.00;;;2.20;;
63193;SDS011;49289;51.670;5.624;2023-04-03T03:37:30;2.90;;;1.90;;
63193;SDS011;49289;51.670;5.624;2023-04-03T03:39:17;3.40;;;2.10;;
63193;SDS011;49289;51.670;5.624;2023-04-03T03:41:04;3.10;;;1.90;;
63193;SDS011;49289;51.670;5.624;2023-04-03T03:42:51;2.90;;;2.10;;
63193;SDS011;49289;51.670;5.624;2023-04-03T03:44:38;2.40;;;2.00;;
63193;SDS011;49289;51.670;5.624;2023-04-03T03:46:25;3.40;;;2.00;;
63193;SDS011;49289;51.670;5.624;2023-04-03T03:48:12;3.10;;;2.10;;
63193;SDS011;49289;51.670;5.624;2023-04-03T03:50:02;4.50;;;2.50;;
63193;SDS011;49289;51.670;5.624;2023-04-03T03:51:50;3.40;;;2.00;;
63193;SDS011;49289;51.670;5.624;2023-04-03T03:53:38;3.80;;;2.10;;
63193;SDS011;49289;51.670;5.624;2023-04-03T03:55:26;4.00;;;2.20;;
63193;SDS011;49289;51.670;5.624;2023-04-03T03:57:14;4.90;;;2.20;;
63193;SDS011;49289;51.670;5.624;2023-04-03T03:59:02;4.00;;;2.30;;
63193;SDS011;49289;51.670;5.624;2023-04-03T04:00:51;3.90;;;2.00;;
63193;SDS011;49289;51.670;5.624;2023-04-03T04:02:38;2.90;;;2.10;;
63193;SDS011;49289;51.670;5.624;2023-04-03T04:04:26;4.30;;;2.10;;
63193;SDS011;49289;51.670;5.624;2023-04-03T04:06:13;4.70;;;2.10;;
63193;SDS011;49289;51.670;5.624;2023-04-03T04:08:00;4.30;;;2.20;;
63193;SDS011;49289;51.670;5.624;2023-04-03T04:09:47;4.20;;;2.10;;
63193;SDS011;49289;51.670;5.624;2023-04-03T04:11:34;3.40;;;2.20;;
63193;SDS011;49289;51.670;5.624;2023-04-03T04:13:21;3.70;;;1.80;;
63193;SDS011;49289;51.670;5.624;2023-04-03T04:15:08;2.30;;;2.00;;
63193;SDS011;49289;51.670;5.624;2023-04-03T04:16:56;3.40;;;2.00;;
63193;SDS011;49289;51.670;5.624;2023-04-03T04:18:44;4.50;;;2.00;;
63193;SDS011;49289;51.670;5.624;2023-04-03T04:20:32;3.10;;;2.50;;
63193;SDS011;49289;51.670;5.624;2023-04-03T04:22:20;3.60;;;2.10;;
63193;SDS011;49289;51.670;5.624;2023-04-03T04:24:09;5.10;;;2.20;;
63193;SDS011;49289;51.670;5.624;2023-04-03T04:25:56;3.30;;;2.00;;
63193;SDS011;49289;51.670;5.624;2023-04-03T04:27:44;3.90;;;2.00;;
63193;SDS011;49289;51.670;5.624;2023-04-03T04:29:32;9.20;;;2.20;;
63193;SDS011;49289;51.670;5.624;2023-04-03T04:31:20;5.40;;;2.10;;
63193;SDS011;49289;51.670;5.624;2023-04-03T04:33:08;4.80;;;2.20;;
63193;SDS011;49289;51.670;5.624;2023-04-03T04:34:56;3.40;;;2.00;;
63193;SDS011;49289;51.670;5.624;2023-04-03T04:36:43;3.90;;;2.10;;
63193;SDS011;49289;51.670;5.624;2023-04-03T04:37:42;3.90;;;2.30;;
63193;SDS011;49289;51.670;5.624;2023-04-03T04:39:29;3.70;;;2.30;;
63193;SDS011;49289;51.670;5.624;2023-04-03T04:41:17;4.90;;;2.20;;
63193;SDS011;49289;51.670;5.624;2023-04-03T04:43:05;3.80;;;2.60;;
63193;SDS011;49289;51.670;5.624;2023-04-03T04:44:53;5.70;;;2.40;;
63193;SDS011;49289;51.670;5.624;2023-04-03T04:46:41;4.00;;;2.30;;
63193;SDS011;49289;51.670;5.624;2023-04-03T04:48:29;3.00;;;2.10;;
63193;SDS011;49289;51.670;5.624;2023-04-03T04:50:17;3.00;;;2.10;;
63193;SDS011;49289;51.670;5.624;2023-04-03T04:52:04;4.60;;;2.10;;
63193;SDS011;49289;51.670;5.624;2023-04-03T04:53:51;3.20;;;2.50;;
63193;SDS011;49289;51.670;5.624;2023-04-03T04:55:38;2.70;;;1.80;;
63193;SDS011;49289;51.670;5.624;2023-04-03T04:57:25;5.20;;;2.20;;
63193;SDS011;49289;51.670;5.624;2023-04-03T04:59:12;3.50;;;2.30;;
63193;SDS011;49289;51.670;5.624;2023-04-03T05:01:04;5.50;;;2.00;;
63193;SDS011;49289;51.670;5.624;2023-04-03T05:02:51;3.40;;;2.20;;
63193;SDS011;49289;51.670;5.624;2023-04-03T05:04:39;4.60;;;2.20;;
63193;SDS011;49289;51.670;5.624;2023-04-03T05:06:27;6.80;;;2.30;;
63193;SDS011;49289;51.670;5.624;2023-04-03T05:08:15;3.90;;;2.20;;
63193;SDS011;49289;51.670;5.624;2023-04-03T05:10:03;3.80;;;2.20;;
63193;SDS011;49289;51.670;5.624;2023-04-03T05:11:52;3.20;;;2.20;;
63193;SDS011;49289;51.670;5.624;2023-04-03T05:13:40;4.40;;;2.10;;
63193;SDS011;49289;51.670;5.624;2023-04-03T05:15:28;3.70;;;2.00;;
63193;SDS011;49289;51.670;5.624;2023-04-03T05:17:16;4.30;;;2.10;;
63193;SDS011;49289;51.670;5.624;2023-04-03T05:19:04;5.20;;;1.90;;
63193;SDS011;49289;51.670;5.624;2023-04-03T05:20:51;6.00;;;2.10;;
63193;SDS011;49289;51.670;5.624;2023-04-03T05:22:38;3.50;;;2.30;;
63193;SDS011;49289;51.670;5.624;2023-04-03T05:24:25;3.60;;;2.00;;
63193;SDS011;49289;51.670;5.624;2023-04-03T05:26:12;4.80;;;2.20;;
63193;SDS011;49289;51.670;5.624;2023-04-03T05:27:59;3.60;;;2.10;;
63193;SDS011;49289;51.670;5.624;2023-04-03T05:29:46;4.00;;;2.00;;
63193;SDS011;49289;51.670;5.624;2023-04-03T05:31:33;4.20;;;2.00;;
63193;SDS011;49289;51.670;5.624;2023-04-03T05:33:20;4.80;;;2.30;;
63193;SDS011;49289;51.670;5.624;2023-04-03T05:35:07;4.00;;;2.10;;
63193;SDS011;49289;51.670;5.624;2023-04-03T05:36:54;4.00;;;2.10;;
63193;SDS011;49289;51.670;5.624;2023-04-03T05:38:41;5.10;;;2.30;;
63193;SDS011;49289;51.670;5.624;2023-04-03T05:40:28;7.20;;;2.20;;
63193;SDS011;49289;51.670;5.624;2023-04-03T05:42:15;5.70;;;2.20;;
63193;SDS011;49289;51.670;5.624;2023-04-03T05:44:02;4.10;;;2.10;;
63193;SDS011;49289;51.670;5.624;2023-04-03T05:45:49;4.70;;;1.90;;
63193;SDS011;49289;51.670;5.624;2023-04-03T05:47:36;4.20;;;2.00;;
63193;SDS011;49289;51.670;5.624;2023-04-03T05:49:23;4.00;;;2.00;;
63193;SDS011;49289;51.670;5.624;2023-04-03T05:51:12;5.10;;;1.80;;
63193;SDS011;49289;51.670;5.624;2023-04-03T05:53:00;4.20;;;2.20;;
63193;SDS011;49289;51.670;5.624;2023-04-03T05:54:48;2.60;;;1.90;;
63193;SDS011;49289;51.670;5.624;2023-04-03T05:56:35;4.30;;;2.20;;
63193;SDS011;49289;51.670;5.624;2023-04-03T05:58:23;3.30;;;2.10;;
63193;SDS011;49289;51.670;5.624;2023-04-03T06:00:13;4.80;;;2.00;;
63193;SDS011;49289;51.670;5.624;2023-04-03T06:02:00;3.50;;;2.00;;
63193;SDS011;49289;51.670;5.624;2023-04-03T06:03:48;4.00;;;1.90;;
63193;SDS011;49289;51.670;5.624;2023-04-03T06:05:36;2.90;;;2.10;;
63193;SDS011;49289;51.670;5.624;2023-04-03T06:07:24;4.30;;;2.00;;
63193;SDS011;49289;51.670;5.624;2023-04-03T06:09:10;3.20;;;1.90;;
63193;SDS011;49289;51.670;5.624;2023-04-03T06:10:57;3.90;;;1.90;;
63193;SDS011;49289;51.670;5.624;2023-04-03T06:12:44;4.90;;;2.00;;
63193;SDS011;49289;51.670;5.624;2023-04-03T06:14:31;3.10;;;2.00;;
63193;SDS011;49289;51.670;5.624;2023-04-03T06:16:18;4.50;;;1.90;;
63193;SDS011;49289;51.670;5.624;2023-04-03T06:18:05;5.00;;;2.40;;
63193;SDS011;49289;51.670;5.624;2023-04-03T06:19:52;4.60;;;2.10;;
63193;SDS011;49289;51.670;5.624;2023-04-03T06:21:39;5.60;;;1.90;;
63193;SDS011;49289;51.670;5.624;2023-04-03T06:23:26;3.80;;;1.70;;
63193;SDS011;49289;51.670;5.624;2023-04-03T06:25:13;3.40;;;2.10;;
63193;SDS011;49289;51.670;5.624;2023-04-03T06:27:00;4.40;;;2.00;;
63193;SDS011;49289;51.670;5.624;2023-04-03T06:28:47;4.30;;;2.00;;
63193;SDS011;49289;51.670;5.624;2023-04-03T06:30:34;4.50;;;2.20;;
63193;SDS011;49289;51.670;5.624;2023-04-03T06:32:21;3.70;;;2.10;;
63193;SDS011;49289;51.670;5.624;2023-04-03T06:34:08;3.20;;;1.90;;
63193;SDS011;49289;51.670;5.624;2023-04-03T06:35:55;5.20;;;1.90;;
63193;SDS011;49289;51.670;5.624;2023-04-03T06:37:43;6.70;;;2.10;;
63193;SDS011;49289;51.670;5.624;2023-04-03T06:39:31;4.90;;;1.70;;
63193;SDS011;49289;51.670;5.624;2023-04-03T06:41:19;3.90;;;1.90;;
63193;SDS011;49289;51.670;5.624;2023-04-03T06:43:07;3.30;;;1.80;;
63193;SDS011;49289;51.670;5.624;2023-04-03T06:44:56;3.60;;;1.60;;
63193;SDS011;49289;51.670;5.624;2023-04-03T06:46:44;7.80;;;2.30;;
63193;SDS011;49289;51.670;5.624;2023-04-03T06:48:30;5.30;;;1.70;;
63193;SDS011;49289;51.670;5.624;2023-04-03T06:50:17;4.50;;;1.90;;
63193;SDS011;49289;51.670;5.624;2023-04-03T06:52:04;6.40;;;1.90;;
63193;SDS011;49289;51.670;5.624;2023-04-03T06:53:52;3.40;;;1.70;;
63193;SDS011;49289;51.670;5.624;2023-04-03T06:55:38;3.50;;;1.90;;
63193;SDS011;49289;51.670;5.624;2023-04-03T06:57:25;2.80;;;1.80;;
63193;SDS011;49289;51.670;5.624;2023-04-03T06:59:12;3.60;;;1.60;;
63193;SDS011;49289;51.670;5.624;2023-04-03T07:00:59;2.70;;;1.90;;
63193;SDS011;49289;51.670;5.624;2023-04-03T07:02:46;4.00;;;1.80;;
63193;SDS011;49289;51.670;5.624;2023-04-03T07:04:33;3.40;;;1.90;;
63193;SDS011;49289;51.670;5.624;2023-04-03T07:06:20;3.80;;;1.70;;
63193;SDS011;49289;51.670;5.624;2023-04-03T07:08:07;2.90;;;1.70;;
63193;SDS011;49289;51.670;5.624;2023-04-03T07:09:54;6.20;;;1.90;;
63193;SDS011;49289;51.670;5.624;2023-04-03T07:11:42;4.00;;;1.80;;
63193;SDS011;49289;51.670;5.624;2023-04-03T07:13:30;3.30;;;2.00;;
63193;SDS011;49289;51.670;5.624;2023-04-03T07:15:17;4.40;;;1.80;;
63193;SDS011;49289;51.670;5.624;2023-04-03T07:17:05;6.10;;;2.00;;
63193;SDS011;49289;51.670;5.624;2023-04-03T07:18:53;3.40;;;1.80;;
63193;SDS011;49289;51.670;5.624;2023-04-03T07:20:42;3.80;;;1.80;;
63193;SDS011;49289;51.670;5.624;2023-04-03T07:22:29;4.00;;;1.90;;
63193;SDS011;49289;51.670;5.624;2023-04-03T07:24:16;5.80;;;1.90;;
63193;SDS011;49289;51.670;5.624;2023-04-03T07:26:03;4.50;;;1.80;;
63193;SDS011;49289;51.670;5.624;2023-04-03T07:27:50;3.70;;;1.80;;
63193;SDS011;49289;51.670;5.624;2023-04-03T07:29:37;6.60;;;2.00;;
63193;SDS011;49289;51.670;5.624;2023-04-03T07:31:24;3.10;;;2.00;;
63193;SDS011;49289;51.670;5.624;2023-04-03T07:33:11;5.60;;;1.90;;
63193;SDS011;49289;51.670;5.624;2023-04-03T07:34:58;4.80;;;1.70;;
63193;SDS011;49289;51.670;5.624;2023-04-03T07:36:45;3.80;;;1.70;;
63193;SDS011;49289;51.670;5.624;2023-04-03T07:38:32;3.30;;;1.90;;
63193;SDS011;49289;51.670;5.624;2023-04-03T07:40:19;4.10;;;1.80;;
63193;SDS011;49289;51.670;5.624;2023-04-03T07:42:06;2.70;;;1.70;;
63193;SDS011;49289;51.670;5.624;2023-04-03T07:43:54;6.70;;;2.10;;
63193;SDS011;49289;51.670;5.624;2023-04-03T07:45:42;4.60;;;1.50;;
63193;SDS011;49289;51.670;5.624;2023-04-03T07:47:30;2.80;;;1.70;;
63193;SDS011;49289;51.670;5.624;2023-04-03T07:49:18;6.40;;;2.00;;
63193;SDS011;49289;51.670;5.624;2023-04-03T07:51:06;4.50;;;1.80;;
63193;SDS011;49289;51.670;5.624;2023-04-03T07:52:54;2.90;;;1.80;;
63193;SDS011;49289;51.670;5.624;2023-04-03T07:54:42;3.30;;;1.90;;
63193;SDS011;49289;51.670;5.624;2023-04-03T07:56:30;6.60;;;1.80;;
63193;SDS011;49289;51.670;5.624;2023-04-03T07:58:02;6.20;;;2.10;;
63193;SDS011;49289;51.670;5.624;2023-04-03T07:59:49;3.50;;;1.70;;
63193;SDS011;49289;51.670;5.624;2023-04-03T08:01:36;5.70;;;2.30;;
63193;SDS011;49289;51.670;5.624;2023-04-03T08:03:23;4.60;;;1.80;;
63193;SDS011;49289;51.670;5.624;2023-04-03T08:05:10;5.00;;;1.70;;
63193;SDS011;49289;51.670;5.624;2023-04-03T08:06:58;3.00;;;1.80;;
63193;SDS011;49289;51.670;5.624;2023-04-03T08:08:46;2.40;;;1.60;;
63193;SDS011;49289;51.670;5.624;2023-04-03T08:10:35;4.60;;;1.80;;
63193;SDS011;49289;51.670;5.624;2023-04-03T08:12:22;5.00;;;1.80;;
63193;SDS011;49289;51.670;5.624;2023-04-03T08:14:09;3.50;;;1.50;;
63193;SDS011;49289;51.670;5.624;2023-04-03T08:15:56;3.20;;;1.70;;
63193;SDS011;49289;51.670;5.624;2023-04-03T08:17:44;4.20;;;2.10;;
63193;SDS011;49289;51.670;5.624;2023-04-03T08:19:32;3.00;;;1.60;;
63193;SDS011;49289;51.670;5.624;2023-04-03T08:21:20;2.80;;;1.70;;
63193;SDS011;49289;51.670;5.624;2023-04-03T08:23:08;5.40;;;1.80;;
63193;SDS011;49289;51.670;5.624;2023-04-03T08:24:58;2.60;;;1.60;;
63193;SDS011;49289;51.670;5.624;2023-04-03T08:26:46;2.10;;;1.50;;
63193;SDS011;49289;51.670;5.624;2023-04-03T08:28:34;2.60;;;1.60;;
63193;SDS011;49289;51.670;5.624;2023-04-03T08:30:22;3.90;;;1.60;;
63193;SDS011;49289;51.670;5.624;2023-04-03T08:32:10;3.20;;;1.40;;
63193;SDS011;49289;51.670;5.624;2023-04-03T08:33:57;4.50;;;1.40;;
63193;SDS011;49289;51.670;5.624;2023-04-03T08:35:44;4.10;;;1.80;;
63193;SDS011;49289;51.670;5.624;2023-04-03T08:37:31;2.70;;;1.50;;
63193;SDS011;49289;51.670;5.624;2023-04-03T08:39:20;4.20;;;1.80;;
63193;SDS011;49289;51.670;5.624;2023-04-03T08:41:11;4.50;;;1.80;;
63193;SDS011;49289;51.670;5.624;2023-04-03T08:43:00;3.50;;;1.70;;
63193;SDS011;49289;51.670;5.624;2023-04-03T08:44:52;4.50;;;1.50;;
63193;SDS011;49289;51.670;5.624;2023-04-03T08:46:43;3.70;;;1.40;;
63193;SDS011;49289;51.670;5.624;2023-04-03T08:48:31;4.10;;;1.50;;
63193;SDS011;49289;51.670;5.624;2023-04-03T08:50:28;2.60;;;1.40;;
63193;SDS011;49289;51.670;5.624;2023-04-03T08:52:08;2.60;;;1.70;;
63193;SDS011;49289;51.670;5.624;2023-04-03T08:53:56;1.50;;;1.20;;
63193;SDS011;49289;51.670;5.624;2023-04-03T08:55:45;2.30;;;1.20;;
63193;SDS011;49289;51.670;5.624;2023-04-03T08:57:33;2.50;;;1.40;;
63193;SDS011;49289;51.670;5.624;2023-04-03T08:59:21;2.80;;;1.30;;
63193;SDS011;49289;51.670;5.624;2023-04-03T09:01:10;2.40;;;1.10;;
63193;SDS011;49289;51.670;5.624;2023-04-03T09:02:57;2.60;;;1.40;;
63193;SDS011;49289;51.670;5.624;2023-04-03T09:04:44;3.60;;;1.30;;
63193;SDS011;49289;51.670;5.624;2023-04-03T09:06:31;2.10;;;1.10;;
63193;SDS011;49289;51.670;5.624;2023-04-03T09:08:21;2.90;;;1.40;;
63193;SDS011;49289;51.670;5.624;2023-04-03T09:10:08;2.90;;;1.30;;
63193;SDS011;49289;51.670;5.624;2023-04-03T09:11:55;2.60;;;1.20;;
63193;SDS011;49289;51.670;5.624;2023-04-03T09:13:44;2.50;;;1.30;;
63193;SDS011;49289;51.670;5.624;2023-04-03T09:15:32;2.60;;;1.30;;
63193;SDS011;49289;51.670;5.624;2023-04-03T09:17:23;2.70;;;1.20;;
63193;SDS011;49289;51.670;5.624;2023-04-03T09:19:13;2.10;;;1.10;;
63193;SDS011;49289;51.670;5.624;2023-04-03T09:21:00;1.20;;;1.10;;
63193;SDS011;49289;51.670;5.624;2023-04-03T09:22:48;2.20;;;1.20;;
63193;SDS011;49289;51.670;5.624;2023-04-03T09:24:36;2.60;;;1.00;;
63193;SDS011;49289;51.670;5.624;2023-04-03T09:26:24;3.30;;;1.10;;
63193;SDS011;49289;51.670;5.624;2023-04-03T09:28:12;3.10;;;1.30;;
63193;SDS011;49289;51.670;5.624;2023-04-03T09:30:00;2.70;;;1.20;;
63193;SDS011;49289;51.670;5.624;2023-04-03T09:31:47;2.40;;;1.00;;
63193;SDS011;49289;51.670;5.624;2023-04-03T09:33:34;1.90;;;1.20;;
63193;SDS011;49289;51.670;5.624;2023-04-03T09:35:22;2.20;;;1.10;;
63193;SDS011;49289;51.670;5.624;2023-04-03T09:37:10;1.30;;;0.90;;
63193;SDS011;49289;51.670;5.624;2023-04-03T09:39:09;0.80;;;0.70;;
63193;SDS011;49289;51.670;5.624;2023-04-03T09:41:02;0.80;;;0.70;;
63193;SDS011;49289;51.670;5.624;2023-04-03T09:42:49;2.20;;;0.90;;
63193;SDS011;49289;51.670;5.624;2023-04-03T09:44:37;0.70;;;0.60;;
63193;SDS011;49289;51.670;5.624;2023-04-03T09:46:24;1.50;;;0.80;;
63193;SDS011;49289;51.670;5.624;2023-04-03T09:48:15;0.80;;;0.80;;
63193;SDS011;49289;51.670;5.624;2023-04-03T09:50:08;0.60;;;0.60;;
63193;SDS011;49289;51.670;5.624;2023-04-03T09:51:54;2.40;;;0.90;;
63193;SDS011;49289;51.670;5.624;2023-04-03T09:53:41;1.60;;;0.80;;
63193;SDS011;49289;51.670;5.624;2023-04-03T09:55:28;1.10;;;0.90;;
63193;SDS011;49289;51.670;5.624;2023-04-03T09:57:15;0.70;;;0.70;;
63193;SDS011;49289;51.670;5.624;2023-04-03T09:59:13;0.60;;;0.60;;
63193;SDS011;49289;51.670;5.624;2023-04-03T10:01:01;0.50;;;0.50;;
63193;SDS011;49289;51.670;5.624;2023-04-03T10:02:49;1.80;;;0.60;;
63193;SDS011;49289;51.670;5.624;2023-04-03T10:04:43;1.80;;;0.60;;
63193;SDS011;49289;51.670;5.624;2023-04-03T10:06:30;0.90;;;0.50;;
63193;SDS011;49289;51.670;5.624;2023-04-03T10:08:25;0.60;;;0.60;;
63193;SDS011;49289;51.670;5.624;2023-04-03T10:10:21;1.00;;;0.90;;
63193;SDS011;49289;51.670;5.624;2023-04-03T10:12:08;1.10;;;0.70;;
63193;SDS011;49289;51.670;5.624;2023-04-03T10:13:56;0.60;;;0.60;;
63193;SDS011;49289;51.670;5.624;2023-04-03T10:15:46;2.10;;;0.60;;
63193;SDS011;49289;51.670;5.624;2023-04-03T10:17:38;0.80;;;0.80;;
63193;SDS011;49289;51.670;5.624;2023-04-03T10:19:31;2.20;;;0.60;;
63193;SDS011;49289;51.670;5.624;2023-04-03T10:21:24;1.40;;;0.60;;
63193;SDS011;49289;51.670;5.624;2023-04-03T10:23:17;0.60;;;0.60;;
63193;SDS011;49289;51.670;5.624;2023-04-03T10:25:08;0.80;;;0.60;;
63193;SDS011;49289;51.670;5.624;2023-04-03T10:26:56;1.20;;;0.70;;
63193;SDS011;49289;51.670;5.624;2023-04-03T10:28:43;0.70;;;0.70;;
63193;SDS011;49289;51.670;5.624;2023-04-03T10:30:36;0.60;;;0.60;;
63193;SDS011;49289;51.670;5.624;2023-04-03T10:32:30;0.70;;;0.70;;
63193;SDS011;49289;51.670;5.624;2023-04-03T10:34:20;1.00;;;0.70;;
63193;SDS011;49289;51.670;5.624;2023-04-03T10:36:14;0.60;;;0.60;;
63193;SDS011;49289;51.670;5.624;2023-04-03T10:38:04;0.60;;;0.60;;
63193;SDS011;49289;51.670;5.624;2023-04-03T10:39:53;1.10;;;0.60;;
63193;SDS011;49289;51.670;5.624;2023-04-03T10:41:42;2.00;;;0.60;;
63193;SDS011;49289;51.670;5.624;2023-04-03T10:43:33;0.70;;;0.70;;
63193;SDS011;49289;51.670;5.624;2023-04-03T10:45:21;2.10;;;0.80;;
63193;SDS011;49289;51.670;5.624;2023-04-03T10:47:10;0.70;;;0.70;;
63193;SDS011;49289;51.670;5.624;2023-04-03T10:49:00;1.10;;;0.60;;
63193;SDS011;49289;51.670;5.624;2023-04-03T10:50:57;0.90;;;0.90;;
63193;SDS011;49289;51.670;5.624;2023-04-03T10:52:43;1.10;;;0.80;;